createdAt,value
2022-11-14T00:00:32.596Z,4.10
2022-11-14T00:05:38.475Z,4.10
2022-11-14T00:10:40.170Z,4.10
2022-11-14T00:15:42.417Z,4.10
2022-11-14T00:20:47.170Z,4.10
2022-11-14T00:25:49.067Z,4.30
2022-11-14T00:30:50.743Z,4.30
2022-11-14T00:35:56.644Z,4.40
2022-11-14T00:40:58.327Z,4.40
2022-11-14T00:45:59.954Z,4.60
2022-11-14T00:51:01.904Z,4.60
2022-11-14T00:56:04.186Z,4.70
2022-11-14T01:01:05.961Z,4.80
2022-11-14T01:06:10.902Z,4.90
2022-11-14T01:11:18.072Z,4.80
2022-11-14T01:16:20.109Z,4.80
2022-11-14T01:21:21.769Z,4.70
2022-11-14T01:26:23.556Z,4.80
2022-11-14T01:31:26.215Z,4.70
2022-11-14T01:36:27.895Z,4.70
2022-11-14T01:41:29.565Z,4.80
2022-11-14T01:46:38.886Z,4.70
2022-11-14T01:52:05.746Z,4.70
2022-11-14T01:57:08.782Z,4.60
2022-11-14T02:02:17.990Z,4.50
2022-11-14T02:07:20.004Z,4.40
2022-11-14T02:12:23.088Z,4.50
2022-11-14T02:17:30.564Z,4.30
2022-11-14T02:22:33.055Z,4.30
2022-11-14T02:27:36.285Z,4.30
2022-11-14T02:33:09.615Z,4.30
2022-11-14T02:37:59.840Z,4.20
2022-11-14T02:43:01.721Z,4.20
2022-11-14T02:48:03.806Z,4.20
2022-11-14T02:53:05.535Z,4.20
2022-11-14T02:58:07.616Z,4.20
2022-11-14T03:03:09.362Z,4.10
2022-11-14T03:08:11.120Z,4.00
2022-11-14T03:13:12.815Z,3.90
2022-11-14T03:18:14.563Z,3.90
2022-11-14T03:23:16.297Z,3.90
2022-11-14T03:28:18.121Z,3.90
2022-11-14T03:33:19.875Z,3.90
2022-11-14T03:38:24.431Z,3.90
2022-11-14T03:43:26.660Z,3.90
2022-11-14T03:48:29.288Z,3.90
2022-11-14T03:53:31.179Z,3.90
2022-11-14T03:58:33.259Z,4.00
2022-11-14T04:03:35.221Z,4.00
2022-11-14T04:08:36.977Z,3.90
2022-11-14T04:13:38.690Z,4.00
2022-11-14T04:18:40.366Z,4.00
2022-11-14T04:23:42.071Z,4.00
2022-11-14T04:28:43.841Z,4.00
2022-11-14T04:33:45.492Z,3.90
2022-11-14T04:38:47.188Z,3.90
2022-11-14T04:43:50.941Z,3.90
2022-11-14T04:48:52.871Z,3.80
2022-11-14T04:53:54.540Z,3.90
2022-11-14T04:58:56.310Z,3.80
2022-11-14T05:03:58.056Z,3.80
2022-11-14T05:08:59.771Z,3.80
2022-11-14T05:14:01.545Z,3.80
2022-11-14T05:19:03.464Z,3.80
2022-11-14T05:24:05.701Z,3.80
2022-11-14T05:29:07.769Z,3.70
2022-11-14T05:34:09.398Z,3.80
2022-11-14T05:39:11.029Z,3.70
2022-11-14T05:44:12.679Z,3.70
2022-11-14T05:49:17.897Z,3.70
2022-11-14T05:54:22.381Z,3.70
2022-11-14T05:59:24.075Z,3.70
2022-11-14T06:04:25.748Z,3.80
2022-11-14T06:09:27.435Z,3.90
2022-11-14T06:14:29.154Z,3.90
2022-11-14T06:19:30.925Z,3.90
2022-11-14T06:24:32.666Z,3.90
2022-11-14T06:29:35.790Z,3.90
2022-11-14T06:34:37.564Z,3.80
2022-11-14T06:39:39.289Z,3.80
2022-11-14T06:44:40.948Z,3.80
2022-11-14T06:49:42.681Z,3.90
2022-11-14T06:54:45.515Z,3.90
2022-11-14T06:59:48.123Z,3.90
2022-11-14T07:04:49.794Z,4.00
2022-11-14T07:09:51.527Z,4.00
2022-11-14T07:14:53.240Z,4.10
2022-11-14T07:19:54.935Z,4.20
2022-11-14T07:24:56.607Z,4.30
2022-11-14T07:29:58.311Z,4.40
2022-11-14T07:35:02.259Z,4.60
2022-11-14T07:40:04.712Z,4.70
2022-11-14T07:45:07.025Z,4.90
2022-11-14T07:50:09.068Z,4.90
2022-11-14T07:55:10.758Z,5.10
2022-11-14T08:00:13.494Z,5.30
2022-11-14T08:05:15.375Z,5.40
2022-11-14T08:10:18.130Z,5.60
2022-11-14T08:15:19.825Z,6.00
2022-11-14T08:20:22.678Z,6.40
2022-11-14T08:25:24.418Z,6.50
2022-11-14T08:30:26.465Z,6.60
2022-11-14T08:35:28.272Z,6.70
2022-11-14T08:40:30.656Z,6.80
2022-11-14T08:45:32.344Z,7.00
2022-11-14T08:50:34.319Z,7.20
2022-11-14T08:55:36.006Z,7.30
2022-11-14T09:00:37.718Z,7.30
2022-11-14T09:05:39.616Z,7.30
2022-11-14T09:10:41.335Z,7.40
2022-11-14T09:15:43.166Z,7.60
2022-11-14T09:20:44.933Z,7.70
2022-11-14T09:25:46.570Z,7.90
2022-11-14T09:30:48.256Z,8.00
2022-11-14T09:35:55.591Z,8.00
2022-11-14T09:41:08.961Z,8.10
2022-11-14T09:46:20.573Z,8.30
2022-11-14T09:51:45.197Z,8.60
2022-11-14T09:56:46.927Z,8.80
2022-11-14T10:01:57.631Z,8.90
2022-11-14T10:07:18.201Z,9.10
2022-11-14T10:12:31.162Z,9.20
2022-11-14T10:17:57.314Z,9.20
2022-11-14T10:23:06.126Z,9.40
2022-11-14T10:28:29.996Z,9.50
2022-11-14T10:33:31.845Z,9.60
2022-11-14T10:38:38.840Z,9.60
2022-11-14T10:43:44.854Z,9.80
2022-11-14T10:48:49.405Z,9.90
2022-11-14T10:54:24.914Z,10.00
2022-11-14T10:59:27.987Z,10.10
2022-11-14T11:04:31.293Z,10.30
2022-11-14T11:09:59.168Z,10.30
2022-11-14T11:15:18.207Z,10.40
2022-11-14T11:20:28.985Z,10.60
2022-11-14T11:25:32.858Z,10.80
2022-11-14T11:30:34.669Z,10.80
2022-11-14T11:35:36.579Z,10.90
2022-11-14T11:40:40.532Z,10.80
2022-11-14T11:45:45.628Z,11.00
2022-11-14T11:50:49.067Z,11.10
2022-11-14T11:55:55.332Z,11.10
2022-11-14T12:00:56.999Z,11.30
2022-11-14T12:06:11.020Z,11.20
2022-11-14T12:11:19.806Z,11.30
2022-11-14T12:16:55.469Z,11.60
2022-11-14T12:22:26.284Z,11.60
2022-11-14T12:27:55.815Z,11.70
2022-11-14T12:33:01.152Z,11.70
2022-11-14T12:38:15.211Z,11.60
2022-11-14T12:43:37.633Z,11.60
2022-11-14T12:48:42.662Z,11.80
2022-11-14T12:53:45.168Z,11.80
2022-11-14T12:59:11.494Z,12.00
2022-11-14T13:04:40.117Z,12.10
2022-11-14T13:10:02.713Z,12.10
2022-11-14T13:15:41.543Z,12.10
2022-11-14T13:21:04.983Z,12.10
2022-11-14T13:26:13.341Z,12.20
2022-11-14T13:31:25.499Z,12.20
2022-11-14T13:36:39.052Z,12.30
2022-11-14T13:41:59.584Z,12.40
2022-11-14T13:47:13.779Z,12.40
2022-11-14T13:52:16.685Z,12.40
2022-11-14T13:57:30.125Z,12.30
2022-11-14T14:02:59.104Z,12.00
2022-11-14T14:08:07.218Z,11.70
2022-11-14T14:13:47.936Z,11.70
2022-11-14T14:19:37.120Z,11.80
2022-11-14T14:24:41.644Z,11.50
2022-11-14T14:29:55.849Z,11.50
2022-11-14T14:34:59.544Z,11.40
2022-11-14T14:40:03.941Z,11.20
2022-11-14T14:45:15.647Z,11.20
2022-11-14T14:50:23.471Z,11.30
2022-11-14T14:55:32.629Z,11.20
2022-11-14T15:00:34.673Z,11.00
2022-11-14T15:05:36.391Z,11.00
2022-11-14T15:10:38.971Z,10.80
2022-11-14T15:15:40.946Z,10.50
2022-11-14T15:20:42.679Z,10.30
2022-11-14T15:25:44.602Z,10.20
2022-11-14T15:30:58.650Z,10.10
2022-11-14T15:36:11.114Z,10.10
2022-11-14T15:41:24.202Z,10.10
2022-11-14T15:46:35.637Z,10.10
2022-11-14T15:51:45.040Z,10.00
2022-11-14T15:56:46.773Z,9.90
2022-11-14T16:01:52.051Z,9.80
2022-11-14T16:06:54.013Z,9.70
2022-11-14T16:11:55.826Z,9.60
2022-11-14T16:16:57.481Z,9.40
2022-11-14T16:22:02.968Z,9.20
2022-11-14T16:27:05.241Z,9.40
2022-11-14T16:32:10.491Z,9.50
2022-11-14T16:37:13.661Z,9.50
2022-11-14T16:42:15.329Z,9.40
2022-11-14T16:47:19.650Z,9.30
2022-11-14T16:52:21.407Z,9.30
2022-11-14T16:57:24.104Z,9.20
2022-11-14T17:02:26.333Z,9.00
2022-11-14T17:07:32.602Z,8.90
2022-11-14T17:12:34.582Z,8.70
2022-11-14T17:17:36.488Z,8.70
2022-11-14T17:22:38.144Z,8.60
2022-11-14T17:27:39.842Z,8.50
2022-11-14T17:32:41.715Z,8.40
2022-11-14T17:37:43.534Z,8.30
2022-11-14T17:42:45.258Z,8.20
2022-11-14T17:47:46.987Z,8.10
2022-11-14T17:52:48.626Z,8.00
2022-11-14T17:57:50.296Z,8.10
2022-11-14T18:02:52.324Z,8.00
2022-11-14T18:07:54.045Z,8.00
2022-11-14T18:12:55.707Z,7.90
2022-11-14T18:17:57.560Z,8.00
2022-11-14T18:22:59.248Z,7.80
2022-11-14T18:28:00.973Z,7.80
2022-11-14T18:33:02.655Z,7.90
2022-11-14T18:38:04.318Z,8.00
2022-11-14T18:43:05.954Z,7.90
2022-11-14T18:48:07.706Z,7.90
2022-11-14T18:53:09.540Z,7.80
2022-11-14T18:58:13.739Z,7.90
2022-11-14T19:03:16.302Z,7.90
2022-11-14T19:08:18.863Z,7.90
2022-11-14T19:13:24.300Z,7.90
2022-11-14T19:18:26.028Z,8.00
2022-11-14T19:23:28.278Z,8.00
2022-11-14T19:28:30.069Z,8.00
2022-11-14T19:33:32.783Z,8.30
2022-11-14T19:38:34.889Z,8.20
2022-11-14T19:43:40.944Z,8.30
2022-11-14T19:48:42.957Z,8.20
2022-11-14T19:53:45.843Z,8.20
2022-11-14T19:58:49.284Z,8.40
2022-11-14T20:04:01.806Z,8.20
2022-11-14T20:09:08.561Z,8.00
2022-11-14T20:14:12.139Z,8.00
2022-11-14T20:19:14.131Z,8.00
2022-11-14T20:24:21.352Z,8.00
2022-11-14T20:29:23.092Z,7.90
2022-11-14T20:34:25.034Z,7.80
2022-11-14T20:39:26.880Z,7.80
2022-11-14T20:44:28.583Z,7.70
2022-11-14T20:49:30.540Z,7.70
2022-11-14T20:54:32.287Z,7.60
2022-11-14T20:59:34.149Z,7.60
2022-11-14T21:04:35.911Z,7.50
2022-11-14T21:09:37.616Z,7.50
2022-11-14T21:14:39.481Z,7.40
2022-11-14T21:19:41.227Z,7.30
2022-11-14T21:24:42.989Z,7.20
2022-11-14T21:29:44.679Z,7.20
2022-11-14T21:34:46.446Z,7.00
2022-11-14T21:39:49.086Z,6.90
2022-11-14T21:44:50.809Z,6.80
2022-11-14T21:50:00.749Z,6.80
2022-11-14T21:55:02.873Z,6.80
2022-11-14T22:00:05.010Z,6.90
2022-11-14T22:05:07.224Z,6.80
2022-11-14T22:10:09.276Z,6.70
2022-11-14T22:15:11.115Z,6.70
2022-11-14T22:20:12.848Z,6.80
2022-11-14T22:25:14.622Z,6.60
2022-11-14T22:30:16.486Z,6.70
2022-11-14T22:35:18.347Z,6.80
2022-11-14T22:40:19.999Z,6.60
2022-11-14T22:45:21.645Z,6.60
2022-11-14T22:50:23.358Z,6.50
2022-11-14T22:55:25.018Z,6.50
2022-11-14T23:00:26.700Z,6.40
2022-11-14T23:05:28.897Z,6.50
2022-11-14T23:10:32.989Z,6.50
2022-11-14T23:15:35.072Z,6.50
2022-11-14T23:20:36.757Z,6.40
2022-11-14T23:25:38.417Z,6.30
2022-11-14T23:30:40.078Z,6.30
2022-11-14T23:35:42.460Z,6.10
2022-11-14T23:40:44.234Z,6.10
2022-11-14T23:45:48.133Z,6.00
2022-11-14T23:50:54.036Z,6.00
2022-11-14T23:55:57.903Z,6.00
